createdAt,value
2017-11-15T00:00:58.404Z,1018.68
2017-11-15T00:01:58.346Z,1018.66
2017-11-15T00:02:58.283Z,1018.67
2017-11-15T00:03:58.233Z,1018.71
2017-11-15T00:04:58.177Z,1018.68
2017-11-15T00:05:58.100Z,1018.70
2017-11-15T00:06:58.038Z,1018.69
2017-11-15T00:07:57.972Z,1018.74
2017-11-15T00:08:57.912Z,1018.73
2017-11-15T00:09:57.850Z,1018.73
2017-11-15T00:10:57.792Z,1018.73
2017-11-15T00:11:57.733Z,1018.73
2017-11-15T00:12:57.677Z,1018.76
2017-11-15T00:13:57.621Z,1018.78
2017-11-15T00:14:57.552Z,1018.76
2017-11-15T00:15:57.485Z,1018.82
2017-11-15T00:16:57.424Z,1018.80
2017-11-15T00:17:57.365Z,1018.81
2017-11-15T00:18:57.296Z,1018.82
2017-11-15T00:19:57.238Z,1018.82
2017-11-15T00:20:57.185Z,1018.87
2017-11-15T00:21:57.120Z,1018.87
2017-11-15T00:22:57.063Z,1018.89
2017-11-15T00:23:57.010Z,1018.86
2017-11-15T00:24:56.934Z,1018.87
2017-11-15T00:25:56.872Z,1018.92
2017-11-15T00:26:56.812Z,1018.93
2017-11-15T00:27:56.741Z,1018.92
2017-11-15T00:28:56.684Z,1018.93
2017-11-15T00:29:56.626Z,1018.91
2017-11-15T00:30:56.573Z,1018.95
2017-11-15T00:31:56.508Z,1018.96
2017-11-15T00:32:56.454Z,1018.92
2017-11-15T00:33:56.399Z,1018.94
2017-11-15T00:34:56.322Z,1018.93
2017-11-15T00:35:56.256Z,1018.93
2017-11-15T00:36:56.190Z,1018.93
2017-11-15T00:37:56.129Z,1018.90
2017-11-15T00:38:56.071Z,1018.93
2017-11-15T00:39:56.013Z,1018.86
2017-11-15T00:40:55.953Z,1018.88
2017-11-15T00:41:55.897Z,1018.89
2017-11-15T00:42:55.841Z,1018.89
2017-11-15T00:43:55.774Z,1018.92
2017-11-15T00:44:55.716Z,1018.92
2017-11-15T00:45:55.646Z,1018.92
2017-11-15T00:46:55.577Z,1018.93
2017-11-15T00:47:55.515Z,1018.98
2017-11-15T00:48:55.458Z,1018.95
2017-11-15T00:49:55.399Z,1018.92
2017-11-15T00:50:55.340Z,1018.95
2017-11-15T00:51:55.285Z,1018.93
2017-11-15T00:52:55.233Z,1018.95
2017-11-15T00:53:55.157Z,1018.96
2017-11-15T00:54:55.092Z,1018.97
2017-11-15T00:55:55.036Z,1018.97
2017-11-15T00:56:54.962Z,1019.01
2017-11-15T00:57:54.907Z,1018.98
2017-11-15T00:58:54.842Z,1018.99
2017-11-15T00:59:54.786Z,1018.97
2017-11-15T01:00:54.724Z,1018.98
2017-11-15T01:01:54.673Z,1018.98
2017-11-15T01:02:54.619Z,1018.97
2017-11-15T01:03:54.542Z,1019.00
2017-11-15T01:04:54.480Z,1018.93
2017-11-15T01:05:54.420Z,1018.95
2017-11-15T01:06:54.352Z,1018.91
2017-11-15T01:07:54.293Z,1018.93
2017-11-15T01:08:54.232Z,1018.94
2017-11-15T01:09:54.175Z,1018.97
2017-11-15T01:10:54.117Z,1018.98
2017-11-15T01:11:54.063Z,1018.99
2017-11-15T01:12:54.007Z,1019.01
2017-11-15T01:13:53.927Z,1018.97
2017-11-15T01:14:53.866Z,1018.99
2017-11-15T01:15:53.806Z,1019.01
2017-11-15T01:16:53.738Z,1018.99
2017-11-15T01:17:53.680Z,1019.06
2017-11-15T01:18:53.620Z,1019.06
2017-11-15T01:19:53.603Z,1019.05
2017-11-15T01:20:53.506Z,1019.04
2017-11-15T01:21:53.450Z,1019.06
2017-11-15T01:22:53.403Z,1019.05
2017-11-15T01:23:53.344Z,1019.07
2017-11-15T01:24:53.253Z,1019.09
2017-11-15T01:25:53.194Z,1019.08
2017-11-15T01:26:53.127Z,1019.14
2017-11-15T01:27:53.070Z,1019.13
2017-11-15T01:28:53.012Z,1019.09
2017-11-15T01:29:52.950Z,1019.13
2017-11-15T01:30:52.898Z,1019.16
2017-11-15T01:31:52.839Z,1019.13
2017-11-15T01:32:52.785Z,1019.12
2017-11-15T01:33:52.703Z,1019.16
2017-11-15T01:34:52.647Z,1019.18
2017-11-15T01:35:52.574Z,1019.15
2017-11-15T01:36:52.524Z,1019.17
2017-11-15T01:37:52.455Z,1019.20
2017-11-15T01:38:52.398Z,1019.15
2017-11-15T01:39:52.339Z,1019.14
2017-11-15T01:40:52.282Z,1019.16
2017-11-15T01:41:52.228Z,1019.20
2017-11-15T01:42:52.175Z,1019.22
2017-11-15T01:43:52.092Z,1019.22
2017-11-15T01:44:52.031Z,1019.20
2017-11-15T01:45:51.963Z,1019.24
2017-11-15T01:46:51.904Z,1019.25
2017-11-15T01:47:51.853Z,1019.30
2017-11-15T01:48:51.787Z,1019.27
2017-11-15T01:49:51.726Z,1019.27
2017-11-15T01:50:51.676Z,1019.31
2017-11-15T01:51:51.602Z,1019.30
2017-11-15T01:52:51.543Z,1019.25
2017-11-15T01:53:51.479Z,1019.30
2017-11-15T01:54:51.421Z,1019.25
2017-11-15T01:55:51.352Z,1019.27
2017-11-15T01:56:51.298Z,1019.25
2017-11-15T01:57:51.234Z,1019.26
2017-11-15T01:58:51.174Z,1019.24
2017-11-15T01:59:51.117Z,1019.28
2017-11-15T02:00:51.059Z,1019.28
2017-11-15T02:01:50.992Z,1019.24
2017-11-15T02:02:50.952Z,1019.24
2017-11-15T02:03:50.868Z,1019.24
2017-11-15T02:04:50.810Z,1019.23
2017-11-15T02:05:50.744Z,1019.26
2017-11-15T02:06:50.681Z,1019.24
2017-11-15T02:07:50.622Z,1019.25
2017-11-15T02:08:50.563Z,1019.27
2017-11-15T02:09:50.505Z,1019.29
2017-11-15T02:10:50.448Z,1019.24
2017-11-15T02:11:50.393Z,1019.27
2017-11-15T02:12:50.339Z,1019.29
2017-11-15T02:13:50.262Z,1019.29
2017-11-15T02:14:50.199Z,1019.25
2017-11-15T02:15:50.140Z,1019.26
2017-11-15T02:16:50.070Z,1019.25
2017-11-15T02:17:50.011Z,1019.22
2017-11-15T02:18:49.954Z,1019.24
2017-11-15T02:19:49.893Z,1019.23
2017-11-15T02:20:49.838Z,1019.17
2017-11-15T02:21:49.782Z,1019.15
2017-11-15T02:22:49.727Z,1019.17
2017-11-15T02:23:49.648Z,1019.17
2017-11-15T02:24:49.586Z,1019.20
2017-11-15T02:25:49.528Z,1019.18
2017-11-15T02:26:49.460Z,1019.23
2017-11-15T02:27:49.402Z,1019.20
2017-11-15T02:28:49.344Z,1019.25
2017-11-15T02:29:49.283Z,1019.20
2017-11-15T02:30:49.229Z,1019.25
2017-11-15T02:31:49.170Z,1019.24
2017-11-15T02:32:49.116Z,1019.22
2017-11-15T02:33:49.050Z,1019.29
2017-11-15T02:34:48.979Z,1019.28
2017-11-15T02:35:48.930Z,1019.24
2017-11-15T02:36:48.859Z,1019.26
2017-11-15T02:37:48.790Z,1019.24
2017-11-15T02:38:48.739Z,1019.26
2017-11-15T02:39:48.673Z,1019.26
2017-11-15T02:40:48.615Z,1019.21
2017-11-15T02:41:48.559Z,1019.25
2017-11-15T02:42:48.505Z,1019.18
2017-11-15T02:43:48.430Z,1019.23
2017-11-15T02:44:48.367Z,1019.18
2017-11-15T02:45:48.317Z,1019.18
2017-11-15T02:46:48.241Z,1019.17
2017-11-15T02:47:48.180Z,1019.16
2017-11-15T02:48:48.124Z,1019.18
2017-11-15T02:49:48.061Z,1019.25
2017-11-15T02:50:48.004Z,1019.21
2017-11-15T02:51:47.947Z,1019.18
2017-11-15T02:52:47.900Z,1019.22
2017-11-15T02:53:47.816Z,1019.25
2017-11-15T02:54:47.755Z,1019.26
2017-11-15T02:55:47.695Z,1019.27
2017-11-15T02:56:47.627Z,1019.26
2017-11-15T02:57:47.569Z,1019.21
2017-11-15T02:58:47.514Z,1019.26
2017-11-15T02:59:47.449Z,1019.28
2017-11-15T03:00:47.393Z,1019.23
2017-11-15T03:01:47.336Z,1019.22
2017-11-15T03:02:47.282Z,1019.23
2017-11-15T03:03:47.209Z,1019.21
2017-11-15T03:04:47.144Z,1019.21
2017-11-15T03:05:47.084Z,1019.20
2017-11-15T03:06:47.015Z,1019.18
2017-11-15T03:07:46.956Z,1019.19
2017-11-15T03:08:46.897Z,1019.20
2017-11-15T03:09:46.838Z,1019.23
2017-11-15T03:10:46.780Z,1019.19
2017-11-15T03:11:46.724Z,1019.23
2017-11-15T03:12:46.669Z,1019.24
2017-11-15T03:13:46.593Z,1019.24
2017-11-15T03:14:46.531Z,1019.23
2017-11-15T03:15:46.470Z,1019.27
2017-11-15T03:16:46.405Z,1019.27
2017-11-15T03:17:46.343Z,1019.26
2017-11-15T03:18:46.293Z,1019.24
2017-11-15T03:19:46.226Z,1019.25
2017-11-15T03:20:46.165Z,1019.25
2017-11-15T03:21:46.115Z,1019.25
2017-11-15T03:22:46.057Z,1019.23
2017-11-15T03:23:45.980Z,1019.20
2017-11-15T03:24:45.921Z,1019.26
2017-11-15T03:25:45.859Z,1019.23
2017-11-15T03:26:45.791Z,1019.21
2017-11-15T03:27:45.732Z,1019.22
2017-11-15T03:28:45.674Z,1019.18
2017-11-15T03:29:45.615Z,1019.21
2017-11-15T03:30:45.564Z,1019.20
2017-11-15T03:31:45.503Z,1019.21
2017-11-15T03:32:45.452Z,1019.19
2017-11-15T03:33:45.370Z,1019.16
2017-11-15T03:34:45.311Z,1019.17
2017-11-15T03:35:45.249Z,1019.20
2017-11-15T03:36:45.179Z,1019.18
2017-11-15T03:37:45.123Z,1019.14
2017-11-15T03:38:45.097Z,1019.10
2017-11-15T03:39:45.011Z,1019.11
2017-11-15T03:40:44.945Z,1019.13
2017-11-15T03:41:44.890Z,1019.13
2017-11-15T03:42:44.839Z,1019.10
2017-11-15T03:43:44.759Z,1019.12
2017-11-15T03:44:44.698Z,1019.10
2017-11-15T03:45:44.636Z,1019.10
2017-11-15T03:46:44.569Z,1019.13
2017-11-15T03:47:44.508Z,1019.15
2017-11-15T03:48:44.450Z,1019.13
2017-11-15T03:49:44.392Z,1019.15
2017-11-15T03:50:44.333Z,1019.19
2017-11-15T03:51:44.279Z,1019.14
2017-11-15T03:52:44.224Z,1019.18
2017-11-15T03:53:44.149Z,1019.16
2017-11-15T03:54:44.087Z,1019.20
2017-11-15T03:55:44.027Z,1019.16
2017-11-15T03:56:43.960Z,1019.11
2017-11-15T03:57:43.905Z,1019.16
2017-11-15T03:58:43.840Z,1019.20
2017-11-15T03:59:43.781Z,1019.16
2017-11-15T04:00:43.723Z,1019.13
2017-11-15T04:01:43.666Z,1019.14
2017-11-15T04:02:43.599Z,1019.12
2017-11-15T04:03:43.537Z,1019.13
2017-11-15T04:04:43.476Z,1019.13
2017-11-15T04:05:43.414Z,1019.17
2017-11-15T04:06:43.348Z,1019.10
2017-11-15T04:07:43.293Z,1019.14
2017-11-15T04:08:43.229Z,1019.11
2017-11-15T04:09:43.169Z,1019.11
2017-11-15T04:10:43.111Z,1019.13
2017-11-15T04:11:43.055Z,1019.12
2017-11-15T04:12:43.000Z,1019.10
2017-11-15T04:13:42.959Z,1019.08
2017-11-15T04:14:42.867Z,1019.08
2017-11-15T04:15:42.808Z,1019.06
2017-11-15T04:16:42.741Z,1019.09
2017-11-15T04:17:42.683Z,1019.06
2017-11-15T04:18:42.619Z,1019.04
2017-11-15T04:19:42.559Z,1019.02
2017-11-15T04:20:42.501Z,1019.00
2017-11-15T04:21:42.445Z,1019.00
2017-11-15T04:22:42.390Z,1019.01
2017-11-15T04:23:42.334Z,1019.03
2017-11-15T04:24:42.258Z,1019.01
2017-11-15T04:25:42.195Z,1019.01
2017-11-15T04:26:42.137Z,1019.01
2017-11-15T04:27:42.066Z,1019.02
2017-11-15T04:28:42.007Z,1019.03
2017-11-15T04:29:41.950Z,1019.04
2017-11-15T04:30:41.893Z,1019.04
2017-11-15T04:31:41.833Z,1019.02
2017-11-15T04:32:41.777Z,1019.03
2017-11-15T04:33:41.723Z,1018.99
2017-11-15T04:34:41.652Z,1019.00
2017-11-15T04:35:41.585Z,1019.04
2017-11-15T04:36:41.528Z,1019.07
2017-11-15T04:37:41.455Z,1019.08
2017-11-15T04:38:41.397Z,1019.07
2017-11-15T04:39:41.340Z,1019.07
2017-11-15T04:40:41.285Z,1019.09
2017-11-15T04:41:41.221Z,1019.09
2017-11-15T04:42:41.167Z,1019.15
2017-11-15T04:43:41.121Z,1019.10
2017-11-15T04:44:41.035Z,1019.14
2017-11-15T04:45:40.985Z,1019.14
2017-11-15T04:46:40.913Z,1019.16
2017-11-15T04:47:40.847Z,1019.13
2017-11-15T04:48:40.786Z,1019.10
2017-11-15T04:49:40.728Z,1019.17
2017-11-15T04:50:40.669Z,1019.16
2017-11-15T04:51:40.611Z,1019.17
2017-11-15T04:52:40.555Z,1019.14
2017-11-15T04:53:40.503Z,1019.16
2017-11-15T04:54:40.445Z,1019.18
2017-11-15T04:55:40.367Z,1019.20
2017-11-15T04:56:40.304Z,1019.24
2017-11-15T04:57:40.244Z,1019.26
2017-11-15T04:58:40.178Z,1019.32
2017-11-15T04:59:40.121Z,1019.28
2017-11-15T05:00:40.061Z,1019.31
2017-11-15T05:01:40.001Z,1019.33
2017-11-15T05:02:39.943Z,1019.29
2017-11-15T05:03:39.894Z,1019.31
2017-11-15T05:04:39.833Z,1019.35
2017-11-15T05:05:39.758Z,1019.38
2017-11-15T05:06:39.698Z,1019.37
2017-11-15T05:07:39.639Z,1019.39
2017-11-15T05:08:39.568Z,1019.38
2017-11-15T05:09:39.508Z,1019.41
2017-11-15T05:10:39.452Z,1019.42
2017-11-15T05:11:39.394Z,1019.43
2017-11-15T05:12:39.337Z,1019.44
2017-11-15T05:13:39.281Z,1019.47
2017-11-15T05:14:39.227Z,1019.48
2017-11-15T05:15:39.168Z,1019.46
2017-11-15T05:16:39.087Z,1019.44
2017-11-15T05:17:39.024Z,1019.48
2017-11-15T05:18:38.976Z,1019.46
2017-11-15T05:19:38.898Z,1019.48
2017-11-15T05:20:38.840Z,1019.48
2017-11-15T05:21:38.784Z,1019.45
2017-11-15T05:22:38.722Z,1019.43
2017-11-15T05:23:38.667Z,1019.41
2017-11-15T05:24:38.610Z,1019.44
2017-11-15T05:25:38.558Z,1019.40
2017-11-15T05:26:38.479Z,1019.39
2017-11-15T05:27:38.421Z,1019.42
2017-11-15T05:28:38.358Z,1019.39
2017-11-15T05:29:38.294Z,1019.39
2017-11-15T05:30:38.230Z,1019.30
2017-11-15T05:31:38.173Z,1019.30
2017-11-15T05:32:38.113Z,1019.36
2017-11-15T05:33:38.055Z,1019.36
2017-11-15T05:34:37.999Z,1019.33
2017-11-15T05:35:37.944Z,1019.34
2017-11-15T05:36:37.889Z,1019.38
2017-11-15T05:37:37.812Z,1019.33
2017-11-15T05:38:37.744Z,1019.36
2017-11-15T05:39:37.690Z,1019.33
2017-11-15T05:40:37.621Z,1019.34
2017-11-15T05:41:37.564Z,1019.30
2017-11-15T05:42:37.505Z,1019.31
2017-11-15T05:43:37.447Z,1019.28
2017-11-15T05:44:37.388Z,1019.34
2017-11-15T05:45:37.333Z,1019.34
2017-11-15T05:46:37.277Z,1019.34
2017-11-15T05:47:37.203Z,1019.34
2017-11-15T05:48:37.145Z,1019.34
2017-11-15T05:49:37.083Z,1019.35
2017-11-15T05:50:37.032Z,1019.38
2017-11-15T05:51:36.954Z,1019.39
2017-11-15T05:52:36.897Z,1019.41
2017-11-15T05:53:36.838Z,1019.38
2017-11-15T05:54:36.778Z,1019.37
2017-11-15T05:55:36.734Z,1019.35
2017-11-15T05:56:36.667Z,1019.35
2017-11-15T05:57:36.614Z,1019.32
2017-11-15T05:58:36.536Z,1019.30
2017-11-15T05:59:36.474Z,1019.37
2017-11-15T06:00:36.413Z,1019.36
2017-11-15T06:01:36.346Z,1019.39
2017-11-15T06:02:36.286Z,1019.39
2017-11-15T06:03:36.229Z,1019.43
2017-11-15T06:04:36.170Z,1019.44
2017-11-15T06:05:36.111Z,1019.43
2017-11-15T06:06:36.055Z,1019.47
2017-11-15T06:07:36.000Z,1019.50
2017-11-15T06:08:35.945Z,1019.51
2017-11-15T06:09:35.889Z,1019.56
2017-11-15T06:10:35.820Z,1019.57
2017-11-15T06:11:35.769Z,1019.50
2017-11-15T06:12:35.772Z,1019.59
2017-11-15T06:13:35.696Z,1019.58
2017-11-15T06:14:35.605Z,1019.60
2017-11-15T06:15:35.534Z,1019.64
2017-11-15T06:16:35.488Z,1019.68
2017-11-15T06:17:35.388Z,1019.61
2017-11-15T06:18:35.336Z,1019.65
2017-11-15T06:19:35.330Z,1019.65
2017-11-15T06:20:35.212Z,1019.61
2017-11-15T06:21:35.134Z,1019.60
2017-11-15T06:22:35.152Z,1019.65
2017-11-15T06:23:35.029Z,1019.67
2017-11-15T06:24:35.051Z,1019.60
2017-11-15T06:25:35.008Z,1019.65
2017-11-15T06:26:34.846Z,1019.65
2017-11-15T06:27:34.833Z,1019.62
2017-11-15T06:28:34.842Z,1019.62
2017-11-15T06:29:34.780Z,1019.67
2017-11-15T06:30:34.623Z,1019.69
2017-11-15T06:31:34.578Z,1019.75
2017-11-15T06:32:34.482Z,1019.71
2017-11-15T06:33:34.455Z,1019.76
2017-11-15T06:34:34.351Z,1019.74
2017-11-15T06:35:34.313Z,1019.75
2017-11-15T06:36:34.230Z,1019.76
2017-11-15T06:37:34.290Z,1019.77
2017-11-15T06:38:34.110Z,1019.76
2017-11-15T06:39:34.036Z,1019.76
2017-11-15T06:40:33.981Z,1019.76
2017-11-15T06:41:33.914Z,1019.79
2017-11-15T06:42:33.851Z,1019.78
2017-11-15T06:43:33.787Z,1019.74
2017-11-15T06:44:33.728Z,1019.77
2017-11-15T06:45:33.677Z,1019.73
2017-11-15T06:46:33.610Z,1019.78
2017-11-15T06:47:33.555Z,1019.74
2017-11-15T06:48:33.499Z,1019.75
2017-11-15T06:49:33.445Z,1019.74
2017-11-15T06:50:33.366Z,1019.72
2017-11-15T06:51:33.303Z,1019.79
2017-11-15T06:52:33.237Z,1019.76
2017-11-15T06:53:33.175Z,1019.78
2017-11-15T06:54:33.117Z,1019.77
2017-11-15T06:55:33.058Z,1019.79
2017-11-15T06:56:32.999Z,1019.83
2017-11-15T06:57:32.945Z,1019.79
2017-11-15T06:58:32.893Z,1019.84
2017-11-15T06:59:32.833Z,1019.83
2017-11-15T07:00:32.755Z,1019.86
2017-11-15T07:01:32.694Z,1019.90
2017-11-15T07:02:32.634Z,1019.85
2017-11-15T07:03:32.564Z,1019.85
2017-11-15T07:04:32.507Z,1019.88
2017-11-15T07:05:32.453Z,1019.86
2017-11-15T07:06:32.391Z,1019.90
2017-11-15T07:07:32.333Z,1019.89
2017-11-15T07:08:32.276Z,1019.88
2017-11-15T07:09:32.222Z,1019.89
2017-11-15T07:10:32.147Z,1019.85
2017-11-15T07:11:32.087Z,1019.86
2017-11-15T07:12:32.025Z,1019.90
2017-11-15T07:13:31.958Z,1019.92
2017-11-15T07:14:31.898Z,1019.87
2017-11-15T07:15:31.839Z,1019.89
2017-11-15T07:16:31.782Z,1019.91
2017-11-15T07:17:31.721Z,1019.84
2017-11-15T07:18:31.666Z,1019.87
2017-11-15T07:19:31.609Z,1019.87
2017-11-15T07:20:31.556Z,1019.91
2017-11-15T07:21:31.476Z,1019.93
2017-11-15T07:22:31.416Z,1019.90
2017-11-15T07:23:31.353Z,1019.95
2017-11-15T07:24:31.287Z,1019.97
2017-11-15T07:25:31.229Z,1019.94
2017-11-15T07:26:31.171Z,1019.94
2017-11-15T07:27:31.117Z,1019.97
2017-11-15T07:28:31.054Z,1019.98
2017-11-15T07:29:30.998Z,1019.96
2017-11-15T07:30:30.944Z,1020.01
2017-11-15T07:31:30.868Z,1020.02
2017-11-15T07:32:30.811Z,1020.02
2017-11-15T07:33:30.747Z,1020.05
2017-11-15T07:34:30.678Z,1020.03
2017-11-15T07:35:30.621Z,1020.06
2017-11-15T07:36:30.574Z,1020.00
2017-11-15T07:37:30.502Z,1020.03
2017-11-15T07:38:30.451Z,1020.00
2017-11-15T07:39:30.387Z,1020.07
2017-11-15T07:40:30.334Z,1020.04
2017-11-15T07:41:30.276Z,1020.07
2017-11-15T07:42:30.204Z,1020.06
2017-11-15T07:43:30.138Z,1020.10
2017-11-15T07:44:30.077Z,1020.11
2017-11-15T07:45:30.011Z,1020.13
2017-11-15T07:46:29.953Z,1020.12
2017-11-15T07:47:29.895Z,1020.15
2017-11-15T07:48:29.834Z,1020.13
2017-11-15T07:49:29.777Z,1020.17
2017-11-15T07:50:29.720Z,1020.19
2017-11-15T07:51:29.668Z,1020.14
2017-11-15T07:52:29.598Z,1020.12
2017-11-15T07:53:29.532Z,1020.14
2017-11-15T07:54:29.470Z,1020.14
2017-11-15T07:55:29.404Z,1020.15
2017-11-15T07:56:29.343Z,1020.19
2017-11-15T07:57:29.286Z,1020.20
2017-11-15T07:58:29.226Z,1020.21
2017-11-15T07:59:29.173Z,1020.19
2017-11-15T08:00:29.123Z,1020.22
2017-11-15T08:01:29.039Z,1020.19
2017-11-15T08:02:29.002Z,1020.20
2017-11-15T08:03:28.923Z,1020.25
2017-11-15T08:04:28.862Z,1020.26
2017-11-15T08:05:28.805Z,1020.25
2017-11-15T08:06:28.735Z,1020.31
2017-11-15T08:07:28.676Z,1020.27
2017-11-15T08:08:28.620Z,1020.19
2017-11-15T08:09:28.558Z,1020.17
2017-11-15T08:10:28.503Z,1020.17
2017-11-15T08:11:28.445Z,1020.14
2017-11-15T08:12:28.387Z,1020.20
2017-11-15T08:13:28.334Z,1020.19
2017-11-15T08:14:28.265Z,1020.23
2017-11-15T08:15:28.194Z,1020.22
2017-11-15T08:16:28.135Z,1020.24
2017-11-15T08:17:28.067Z,1020.26
2017-11-15T08:18:28.010Z,1020.28
2017-11-15T08:19:27.952Z,1020.25
2017-11-15T08:20:27.892Z,1020.27
2017-11-15T08:21:27.834Z,1020.24
2017-11-15T08:22:27.779Z,1020.29
2017-11-15T08:23:27.725Z,1020.31
2017-11-15T08:24:27.658Z,1020.31
2017-11-15T08:25:27.591Z,1020.27
2017-11-15T08:26:27.532Z,1020.30
2017-11-15T08:27:27.476Z,1020.28
2017-11-15T08:28:27.400Z,1020.27
2017-11-15T08:29:27.345Z,1020.32
2017-11-15T08:30:27.285Z,1020.35
2017-11-15T08:31:27.229Z,1020.33
2017-11-15T08:32:27.170Z,1020.32
2017-11-15T08:33:27.110Z,1020.31
2017-11-15T08:34:27.056Z,1020.32
2017-11-15T08:35:27.001Z,1020.36
2017-11-15T08:36:26.926Z,1020.40
2017-11-15T08:37:26.865Z,1020.39
2017-11-15T08:38:26.806Z,1020.40
2017-11-15T08:39:26.739Z,1020.42
2017-11-15T08:40:26.683Z,1020.40
2017-11-15T08:41:26.619Z,1020.45
2017-11-15T08:42:26.561Z,1020.50
2017-11-15T08:43:26.501Z,1020.51
2017-11-15T08:44:26.446Z,1020.46
2017-11-15T08:45:26.394Z,1020.48
2017-11-15T08:46:26.335Z,1020.49
2017-11-15T08:47:26.260Z,1020.43
2017-11-15T08:48:26.199Z,1020.46
2017-11-15T08:49:26.139Z,1020.46
2017-11-15T08:50:26.127Z,1020.40
2017-11-15T08:51:26.013Z,1020.44
2017-11-15T08:52:25.954Z,1020.45
2017-11-15T08:53:26.068Z,1020.42
2017-11-15T08:54:25.837Z,1020.36
2017-11-15T08:55:25.778Z,1020.38
2017-11-15T08:56:25.723Z,1020.38
2017-11-15T08:57:25.670Z,1020.40
2017-11-15T08:58:25.613Z,1020.34
2017-11-15T08:59:25.536Z,1020.38
2017-11-15T09:00:25.475Z,1020.31
2017-11-15T09:01:25.417Z,1020.34
2017-11-15T09:02:25.349Z,1020.39
2017-11-15T09:03:25.289Z,1020.34
2017-11-15T09:04:25.233Z,1020.34
2017-11-15T09:05:25.181Z,1020.37
2017-11-15T09:06:25.116Z,1020.41
2017-11-15T09:07:25.059Z,1020.32
2017-11-15T09:08:25.003Z,1020.34
2017-11-15T09:09:24.964Z,1020.37
2017-11-15T09:10:24.893Z,1020.36
2017-11-15T09:11:24.814Z,1020.37
2017-11-15T09:12:24.757Z,1020.39
2017-11-15T09:13:24.695Z,1020.41
2017-11-15T09:14:24.636Z,1020.37
2017-11-15T09:15:24.575Z,1020.39
2017-11-15T09:16:24.524Z,1020.40
2017-11-15T09:17:24.455Z,1020.37
2017-11-15T09:18:24.396Z,1020.37
2017-11-15T09:19:24.338Z,1020.33
2017-11-15T09:20:24.282Z,1020.40
2017-11-15T09:21:24.233Z,1020.42
2017-11-15T09:22:24.157Z,1020.40
2017-11-15T09:23:24.099Z,1020.38
2017-11-15T09:24:24.039Z,1020.42
2017-11-15T09:25:23.979Z,1020.47
2017-11-15T09:26:23.937Z,1020.44
2017-11-15T09:27:23.914Z,1020.43
2017-11-15T09:28:23.794Z,1020.43
2017-11-15T09:29:23.737Z,1020.45
2017-11-15T09:30:23.685Z,1020.45
2017-11-15T09:31:23.631Z,1020.44
2017-11-15T09:32:23.565Z,1020.43
2017-11-15T09:33:23.507Z,1020.46
2017-11-15T09:34:23.459Z,1020.47
2017-11-15T09:35:23.397Z,1020.44
2017-11-15T09:36:23.323Z,1020.44
2017-11-15T09:37:23.272Z,1020.37
2017-11-15T09:38:23.237Z,1020.43
2017-11-15T09:39:23.147Z,1020.39
2017-11-15T09:40:23.100Z,1020.42
2017-11-15T09:41:23.038Z,1020.44
2017-11-15T09:42:22.982Z,1020.44
2017-11-15T09:43:22.905Z,1020.44
2017-11-15T09:44:22.846Z,1020.44
2017-11-15T09:45:22.789Z,1020.47
2017-11-15T09:46:22.729Z,1020.49
2017-11-15T09:47:22.676Z,1020.46
2017-11-15T09:48:22.621Z,1020.47
2017-11-15T09:49:22.569Z,1020.46
2017-11-15T09:50:22.496Z,1020.48
2017-11-15T09:51:22.430Z,1020.45
2017-11-15T09:52:22.380Z,1020.46
2017-11-15T09:53:22.315Z,1020.44
2017-11-15T09:54:22.278Z,1020.42
2017-11-15T09:55:22.189Z,1020.40
2017-11-15T09:56:22.129Z,1020.38
2017-11-15T09:57:22.082Z,1020.42
2017-11-15T09:58:22.018Z,1020.40
2017-11-15T09:59:21.956Z,1020.43
2017-11-15T10:00:21.901Z,1020.42
2017-11-15T10:01:21.851Z,1020.43
2017-11-15T10:02:21.791Z,1020.42
2017-11-15T10:03:21.716Z,1020.42
2017-11-15T10:04:21.654Z,1020.41
2017-11-15T10:05:21.597Z,1020.40
2017-11-15T10:06:21.544Z,1020.41
2017-11-15T10:07:21.473Z,1020.44
2017-11-15T10:08:21.412Z,1020.43
2017-11-15T10:09:21.390Z,1020.40
2017-11-15T10:10:21.297Z,1020.42
2017-11-15T10:11:21.255Z,1020.42
2017-11-15T10:12:21.181Z,1020.44
2017-11-15T10:13:21.126Z,1020.44
2017-11-15T10:14:21.070Z,1020.48
2017-11-15T10:15:21.015Z,1020.49
2017-11-15T10:16:20.940Z,1020.47
2017-11-15T10:17:20.885Z,1020.43
2017-11-15T10:18:20.824Z,1020.44
2017-11-15T10:19:20.753Z,1020.46
2017-11-15T10:20:20.701Z,1020.44
2017-11-15T10:21:20.639Z,1020.44
2017-11-15T10:22:20.579Z,1020.39
2017-11-15T10:23:20.522Z,1020.43
2017-11-15T10:24:20.462Z,1020.44
2017-11-15T10:25:20.406Z,1020.44
2017-11-15T10:26:20.349Z,1020.44
2017-11-15T10:27:20.295Z,1020.44
2017-11-15T10:28:20.240Z,1020.43
2017-11-15T10:29:20.164Z,1020.45
2017-11-15T10:30:20.107Z,1020.46
2017-11-15T10:31:20.053Z,1020.40
2017-11-15T10:32:19.991Z,1020.44
2017-11-15T10:33:19.933Z,1020.42
2017-11-15T10:34:19.878Z,1020.39
2017-11-15T10:35:19.802Z,1020.39
2017-11-15T10:36:19.744Z,1020.40
2017-11-15T10:37:19.689Z,1020.30
2017-11-15T10:38:19.631Z,1020.27
2017-11-15T10:39:19.573Z,1020.25
2017-11-15T10:40:19.523Z,1020.26
2017-11-15T10:41:19.470Z,1020.23
2017-11-15T10:42:19.386Z,1020.21
2017-11-15T10:43:19.356Z,1020.21
2017-11-15T10:44:19.266Z,1020.18
2017-11-15T10:45:19.214Z,1020.17
2017-11-15T10:46:19.155Z,1020.19
2017-11-15T10:47:19.138Z,1020.20
2017-11-15T10:48:19.025Z,1020.22
2017-11-15T10:49:18.968Z,1020.24
2017-11-15T10:50:18.913Z,1020.20
2017-11-15T10:51:18.853Z,1020.22
2017-11-15T10:52:18.802Z,1020.24
2017-11-15T10:53:18.746Z,1020.17
2017-11-15T10:54:18.669Z,1020.18
2017-11-15T10:55:18.615Z,1020.15
2017-11-15T10:56:18.557Z,1020.11
2017-11-15T10:57:18.493Z,1020.07
2017-11-15T10:58:18.449Z,1020.08
2017-11-15T10:59:18.369Z,1020.03
2017-11-15T11:00:18.307Z,1020.04
2017-11-15T11:01:18.254Z,1020.02
2017-11-15T11:02:18.190Z,1020.06
2017-11-15T11:03:18.138Z,1020.08
2017-11-15T11:04:18.077Z,1020.08
2017-11-15T11:05:18.028Z,1020.12
2017-11-15T11:06:17.968Z,1020.10
2017-11-15T11:07:17.892Z,1020.15
2017-11-15T11:08:17.832Z,1020.15
2017-11-15T11:09:17.774Z,1020.24
2017-11-15T11:10:17.729Z,1020.24
2017-11-15T11:11:17.667Z,1020.25
2017-11-15T11:12:17.588Z,1020.23
2017-11-15T11:13:17.534Z,1020.21
2017-11-15T11:14:17.474Z,1020.22
2017-11-15T11:15:17.415Z,1020.22
2017-11-15T11:16:17.358Z,1020.18
2017-11-15T11:17:17.308Z,1020.18
2017-11-15T11:18:17.236Z,1020.20
2017-11-15T11:19:17.192Z,1020.20
2017-11-15T11:20:17.145Z,1020.21
2017-11-15T11:21:17.059Z,1020.24
2017-11-15T11:22:17.027Z,1020.19
2017-11-15T11:23:16.968Z,1020.23
2017-11-15T11:24:16.885Z,1020.21
2017-11-15T11:25:16.815Z,1020.23
2017-11-15T11:26:16.759Z,1020.22
2017-11-15T11:27:16.698Z,1020.24
2017-11-15T11:28:16.657Z,1020.19
2017-11-15T11:29:16.586Z,1020.15
2017-11-15T11:30:16.526Z,1020.15
2017-11-15T11:31:16.480Z,1020.16
2017-11-15T11:32:16.428Z,1020.09
2017-11-15T11:33:16.344Z,1020.08
2017-11-15T11:34:16.283Z,1020.14
2017-11-15T11:35:16.230Z,1020.18
2017-11-15T11:36:16.164Z,1020.24
2017-11-15T11:37:16.107Z,1020.23
2017-11-15T11:38:16.046Z,1020.21
2017-11-15T11:39:15.982Z,1020.17
2017-11-15T11:40:15.927Z,1020.21
2017-11-15T11:41:15.875Z,1020.19
2017-11-15T11:42:15.808Z,1020.14
2017-11-15T11:43:15.749Z,1020.13
2017-11-15T11:44:15.688Z,1020.05
2017-11-15T11:45:15.635Z,1020.03
2017-11-15T11:46:15.586Z,1020.08
2017-11-15T11:47:15.510Z,1020.05
2017-11-15T11:48:15.447Z,1020.01
2017-11-15T11:49:15.389Z,1019.98
2017-11-15T11:50:15.326Z,1020.01
2017-11-15T11:51:15.274Z,1020.00
2017-11-15T11:52:15.206Z,1020.07
2017-11-15T11:53:15.156Z,1020.04
2017-11-15T11:54:15.096Z,1020.03
2017-11-15T11:55:15.033Z,1020.03
2017-11-15T11:56:14.975Z,1020.02
2017-11-15T11:57:14.937Z,1019.99
2017-11-15T11:58:14.865Z,1020.01
2017-11-15T11:59:14.790Z,1020.03
2017-11-15T12:00:14.734Z,1020.02
2017-11-15T12:01:14.673Z,1020.03
2017-11-15T12:02:14.619Z,1020.08
2017-11-15T12:03:14.545Z,1020.07
2017-11-15T12:04:14.487Z,1020.05
2017-11-15T12:05:14.429Z,1020.07